sensor_id;sensor_type;location;lat;lon;timestamp;pressure;altitude;pressure_sealevel;temperature;humidity
39267;BME280;24967;51.154;13.812;2022-12-10T00:01:59;98519.41;;;2.55;80.90
39267;BME280;24967;51.154;13.812;2022-12-10T00:04:25;98520.03;;;2.36;81.71
39267;BME280;24967;51.154;13.812;2022-12-10T00:06:51;98524.94;;;2.29;82.19
39267;BME280;24967;51.154;13.812;2022-12-10T00:09:19;98518.63;;;2.32;82.29
39267;BME280;24967;51.154;13.812;2022-12-10T00:11:47;98511.13;;;2.70;81.53
39267;BME280;24967;51.154;13.812;2022-12-10T00:14:13;98514.56;;;2.71;80.75
39267;BME280;24967;51.154;13.812;2022-12-10T00:16:40;98519.25;;;2.88;80.41
39267;BME280;24967;51.154;13.812;2022-12-10T00:19:06;98515.31;;;2.94;80.72
39267;BME280;24967;51.154;13.812;2022-12-10T00:21:33;98513.88;;;2.90;79.63
39267;BME280;24967;51.154;13.812;2022-12-10T00:24:00;98511.97;;;2.92;79.88
39267;BME280;24967;51.154;13.812;2022-12-10T00:26:29;98519.78;;;2.82;80.05
39267;BME280;24967;51.154;13.812;2022-12-10T00:28:55;98517.47;;;2.89;79.50
39267;BME280;24967;51.154;13.812;2022-12-10T00:31:24;98516.13;;;2.94;79.76
39267;BME280;24967;51.154;13.812;2022-12-10T00:33:53;98533.03;;;3.02;79.75
39267;BME280;24967;51.154;13.812;2022-12-10T00:36:20;98527.78;;;3.22;79.25
39267;BME280;24967;51.154;13.812;2022-12-10T00:38:47;98526.28;;;3.30;78.67
39267;BME280;24967;51.154;13.812;2022-12-10T00:41:13;98520.09;;;3.31;78.80
39267;BME280;24967;51.154;13.812;2022-12-10T00:43:41;98527.72;;;3.34;78.15
39267;BME280;24967;51.154;13.812;2022-12-10T00:46:08;98533.44;;;3.39;78.22
39267;BME280;24967;51.154;13.812;2022-12-10T00:48:35;98524.28;;;3.33;77.85
39267;BME280;24967;51.154;13.812;2022-12-10T00:51:02;98527.91;;;3.42;77.74
39267;BME280;24967;51.154;13.812;2022-12-10T00:53:30;98527.13;;;3.51;77.51
39267;BME280;24967;51.154;13.812;2022-12-10T00:55:57;98532.97;;;3.55;77.73
39267;BME280;24967;51.154;13.812;2022-12-10T00:58:26;98534.03;;;3.52;77.56
39267;BME280;24967;51.154;13.812;2022-12-10T01:00:54;98533.88;;;3.23;77.83
39267;BME280;24967;51.154;13.812;2022-12-10T01:03:20;98531.63;;;2.97;78.55
39267;BME280;24967;51.154;13.812;2022-12-10T01:05:47;98525.16;;;3.02;78.64
39267;BME280;24967;51.154;13.812;2022-12-10T01:08:13;98533.34;;;3.08;78.84
39267;BME280;24967;51.154;13.812;2022-12-10T01:10:39;98539.81;;;3.04;78.38
39267;BME280;24967;51.154;13.812;2022-12-10T01:13:06;98537.91;;;3.06;78.98
39267;BME280;24967;51.154;13.812;2022-12-10T01:15:36;98535.59;;;2.92;78.73
39267;BME280;24967;51.154;13.812;2022-12-10T01:18:04;98534.00;;;3.01;78.78
39267;BME280;24967;51.154;13.812;2022-12-10T01:20:33;98544.19;;;2.94;79.60
39267;BME280;24967;51.154;13.812;2022-12-10T01:23:00;98542.75;;;2.90;79.31
39267;BME280;24967;51.154;13.812;2022-12-10T01:25:26;98540.22;;;2.67;80.07
39267;BME280;24967;51.154;13.812;2022-12-10T01:27:52;98539.50;;;2.65;79.90
39267;BME280;24967;51.154;13.812;2022-12-10T01:30:19;98540.94;;;2.69;80.81
39267;BME280;24967;51.154;13.812;2022-12-10T01:32:45;98537.31;;;2.82;80.25
39267;BME280;24967;51.154;13.812;2022-12-10T01:35:13;98534.97;;;3.00;80.12
39267;BME280;24967;51.154;13.812;2022-12-10T01:37:40;98542.34;;;3.06;79.69
39267;BME280;24967;51.154;13.812;2022-12-10T01:40:07;98548.03;;;3.11;78.91
39267;BME280;24967;51.154;13.812;2022-12-10T01:42:33;98548.03;;;3.11;78.97
39267;BME280;24967;51.154;13.812;2022-12-10T01:45:02;98555.97;;;3.20;78.61
39267;BME280;24967;51.154;13.812;2022-12-10T01:47:29;98557.06;;;3.18;78.22
39267;BME280;24967;51.154;13.812;2022-12-10T01:49:56;98560.97;;;3.24;78.24
39267;BME280;24967;51.154;13.812;2022-12-10T01:52:24;98556.72;;;3.32;78.56
39267;BME280;24967;51.154;13.812;2022-12-10T01:54:51;98556.47;;;3.35;78.12
39267;BME280;24967;51.154;13.812;2022-12-10T01:57:18;98552.19;;;3.34;77.68
39267;BME280;24967;51.154;13.812;2022-12-10T01:59:47;98557.91;;;3.18;78.15
39267;BME280;24967;51.154;13.812;2022-12-10T02:02:17;98553.22;;;3.22;77.89
39267;BME280;24967;51.154;13.812;2022-12-10T02:04:49;98549.09;;;3.29;77.63
39267;BME280;24967;51.154;13.812;2022-12-10T02:07:22;98544.94;;;3.27;77.35
39267;BME280;24967;51.154;13.812;2022-12-10T02:09:55;98540.16;;;3.32;77.18
39267;BME280;24967;51.154;13.812;2022-12-10T02:12:25;98544.47;;;3.12;78.29
39267;BME280;24967;51.154;13.812;2022-12-10T02:14:55;98543.16;;;3.27;77.98
39267;BME280;24967;51.154;13.812;2022-12-10T02:17:24;98541.31;;;3.18;77.85
39267;BME280;24967;51.154;13.812;2022-12-10T02:19:55;98540.81;;;3.24;77.81
39267;BME280;24967;51.154;13.812;2022-12-10T02:22:23;98542.97;;;2.98;78.38
39267;BME280;24967;51.154;13.812;2022-12-10T02:24:53;98533.75;;;2.71;79.07
39267;BME280;24967;51.154;13.812;2022-12-10T02:27:22;98532.56;;;2.75;79.24
39267;BME280;24967;51.154;13.812;2022-12-10T02:29:52;98538.59;;;2.87;79.19
39267;BME280;24967;51.154;13.812;2022-12-10T02:32:21;98543.66;;;2.79;79.21
39267;BME280;24967;51.154;13.812;2022-12-10T02:34:50;98538.16;;;2.82;79.28
39267;BME280;24967;51.154;13.812;2022-12-10T02:37:18;98530.13;;;2.84;79.36
39267;BME280;24967;51.154;13.812;2022-12-10T02:39:47;98535.84;;;2.89;79.59
39267;BME280;24967;51.154;13.812;2022-12-10T02:42:15;98527.50;;;2.84;79.93
39267;BME280;24967;51.154;13.812;2022-12-10T02:44:43;98528.44;;;2.94;79.17
39267;BME280;24967;51.154;13.812;2022-12-10T02:47:12;98533.34;;;2.87;79.23
39267;BME280;24967;51.154;13.812;2022-12-10T02:49:39;98528.06;;;2.87;78.82
39267;BME280;24967;51.154;13.812;2022-12-10T02:52:06;98536.63;;;2.68;80.23
39267;BME280;24967;51.154;13.812;2022-12-10T02:54:34;98535.31;;;2.74;79.53
39267;BME280;24967;51.154;13.812;2022-12-10T02:57:03;98542.69;;;2.80;80.20
39267;BME280;24967;51.154;13.812;2022-12-10T02:59:36;98541.53;;;2.73;79.60
39267;BME280;24967;51.154;13.812;2022-12-10T03:02:06;98541.72;;;2.81;80.19
39267;BME280;24967;51.154;13.812;2022-12-10T03:04:37;98533.41;;;2.76;79.44
39267;BME280;24967;51.154;13.812;2022-12-10T03:07:08;98533.19;;;2.68;80.38
39267;BME280;24967;51.154;13.812;2022-12-10T03:09:37;98541.53;;;2.73;79.80
39267;BME280;24967;51.154;13.812;2022-12-10T03:12:07;98537.28;;;2.61;80.60
39267;BME280;24967;51.154;13.812;2022-12-10T03:14:38;98543.34;;;2.61;80.20
39267;BME280;24967;51.154;13.812;2022-12-10T03:17:06;98545.97;;;2.61;80.92
39267;BME280;24967;51.154;13.812;2022-12-10T03:19:34;98545.84;;;2.63;79.98
39267;BME280;24967;51.154;13.812;2022-12-10T03:22:04;98545.34;;;2.69;80.00
39267;BME280;24967;51.154;13.812;2022-12-10T03:24:32;98554.41;;;2.76;79.88
39267;BME280;24967;51.154;13.812;2022-12-10T03:26:59;98552.06;;;2.62;80.14
39267;BME280;24967;51.154;13.812;2022-12-10T03:29:26;98556.44;;;2.72;79.82
39267;BME280;24967;51.154;13.812;2022-12-10T03:31:54;98555.41;;;2.64;79.69
39267;BME280;24967;51.154;13.812;2022-12-10T03:34:22;98552.63;;;2.65;80.02
39267;BME280;24967;51.154;13.812;2022-12-10T03:36:48;98556.81;;;2.68;79.73
39267;BME280;24967;51.154;13.812;2022-12-10T03:39:17;98556.44;;;2.72;79.47
39267;BME280;24967;51.154;13.812;2022-12-10T03:41:44;98558.94;;;2.74;80.02
39267;BME280;24967;51.154;13.812;2022-12-10T03:44:10;98556.56;;;2.71;79.96
39267;BME280;24967;51.154;13.812;2022-12-10T03:46:37;98565.69;;;2.88;79.88
39267;BME280;24967;51.154;13.812;2022-12-10T03:49:03;98560.75;;;2.94;79.38
39267;BME280;24967;51.154;13.812;2022-12-10T03:51:30;98556.44;;;2.72;79.06
39267;BME280;24967;51.154;13.812;2022-12-10T03:53:56;98565.16;;;2.73;78.86
39267;BME280;24967;51.154;13.812;2022-12-10T03:56:24;98553.63;;;2.53;79.36
39267;BME280;24967;51.154;13.812;2022-12-10T03:58:51;98549.91;;;2.67;79.73
39267;BME280;24967;51.154;13.812;2022-12-10T04:01:17;98546.56;;;2.65;79.76
39267;BME280;24967;51.154;13.812;2022-12-10T04:03:44;98548.03;;;2.58;79.37
39267;BME280;24967;51.154;13.812;2022-12-10T04:06:11;98542.28;;;2.64;80.41
39267;BME280;24967;51.154;13.812;2022-12-10T04:08:38;98547.88;;;2.59;79.38
39267;BME280;24967;51.154;13.812;2022-12-10T04:11:05;98544.44;;;2.59;79.55
39267;BME280;24967;51.154;13.812;2022-12-10T04:13:33;98544.53;;;2.57;79.44
39267;BME280;24967;51.154;13.812;2022-12-10T04:16:18;98548.56;;;2.72;79.65
39267;BME280;24967;51.154;13.812;2022-12-10T04:18:53;98555.72;;;2.70;79.68
39267;BME280;24967;51.154;13.812;2022-12-10T04:21:20;98555.56;;;2.83;79.32
39267;BME280;24967;51.154;13.812;2022-12-10T04:24:04;98556.53;;;2.82;79.23
39267;BME280;24967;51.154;13.812;2022-12-10T04:26:48;98559.09;;;2.61;79.36
39267;BME280;24967;51.154;13.812;2022-12-10T04:29:23;98552.81;;;2.41;80.64
39267;BME280;24967;51.154;13.812;2022-12-10T04:31:50;98552.22;;;2.49;80.69
39267;BME280;24967;51.154;13.812;2022-12-10T04:34:16;98553.09;;;2.70;80.54
39267;BME280;24967;51.154;13.812;2022-12-10T04:36:43;98550.34;;;2.72;79.85
39267;BME280;24967;51.154;13.812;2022-12-10T04:39:09;98555.59;;;2.72;79.50
39267;BME280;24967;51.154;13.812;2022-12-10T04:41:37;98548.34;;;2.64;79.72
39267;BME280;24967;51.154;13.812;2022-12-10T04:44:03;98554.75;;;2.71;80.05
39267;BME280;24967;51.154;13.812;2022-12-10T04:46:31;98553.09;;;2.70;79.51
39267;BME280;24967;51.154;13.812;2022-12-10T04:48:58;98549.69;;;2.47;80.75
39267;BME280;24967;51.154;13.812;2022-12-10T04:51:24;98553.47;;;2.66;79.92
39267;BME280;24967;51.154;13.812;2022-12-10T04:53:51;98544.16;;;2.73;79.85
39267;BME280;24967;51.154;13.812;2022-12-10T04:56:17;98548.66;;;2.82;79.98
39267;BME280;24967;51.154;13.812;2022-12-10T04:58:44;98544.94;;;2.85;79.57
39267;BME280;24967;51.154;13.812;2022-12-10T05:01:10;98546.03;;;2.82;79.65
39267;BME280;24967;51.154;13.812;2022-12-10T05:03:39;98545.00;;;2.94;79.55
39267;BME280;24967;51.154;13.812;2022-12-10T05:06:06;98546.31;;;3.00;79.24
39267;BME280;24967;51.154;13.812;2022-12-10T05:08:33;98539.00;;;3.04;79.23
39267;BME280;24967;51.154;13.812;2022-12-10T05:11:00;98540.78;;;3.03;79.12
39267;BME280;24967;51.154;13.812;2022-12-10T05:13:27;98542.34;;;3.06;78.80
39267;BME280;24967;51.154;13.812;2022-12-10T05:15:53;98540.78;;;3.03;78.58
39267;BME280;24967;51.154;13.812;2022-12-10T05:18:20;98546.72;;;3.05;78.62
39267;BME280;24967;51.154;13.812;2022-12-10T05:20:48;98546.94;;;3.13;78.68
39267;BME280;24967;51.154;13.812;2022-12-10T05:23:14;98536.75;;;3.20;78.23
39267;BME280;24967;51.154;13.812;2022-12-10T05:25:58;98535.72;;;3.11;77.70
39267;BME280;24967;51.154;13.812;2022-12-10T05:28:25;98546.13;;;2.81;78.82
39267;BME280;24967;51.154;13.812;2022-12-10T05:30:51;98540.69;;;2.93;78.57
39267;BME280;24967;51.154;13.812;2022-12-10T05:33:18;98554.72;;;2.83;78.17
39267;BME280;24967;51.154;13.812;2022-12-10T05:35:52;98552.22;;;2.81;78.31
39267;BME280;24967;51.154;13.812;2022-12-10T05:38:18;98560.81;;;2.40;80.48
39267;BME280;24967;51.154;13.812;2022-12-10T05:40:44;98557.31;;;2.62;79.58
39267;BME280;24967;51.154;13.812;2022-12-10T05:43:11;98557.78;;;2.67;79.41
39267;BME280;24967;51.154;13.812;2022-12-10T05:45:37;98560.16;;;2.70;80.12
39267;BME280;24967;51.154;13.812;2022-12-10T05:48:04;98555.16;;;2.67;79.54
39267;BME280;24967;51.154;13.812;2022-12-10T05:50:31;98556.34;;;2.63;79.79
39267;BME280;24967;51.154;13.812;2022-12-10T05:52:59;98557.81;;;2.56;79.78
39267;BME280;24967;51.154;13.812;2022-12-10T05:55:25;98557.56;;;2.59;80.08
39267;BME280;24967;51.154;13.812;2022-12-10T05:57:54;98555.59;;;2.72;79.57
39267;BME280;24967;51.154;13.812;2022-12-10T06:00:20;98552.28;;;2.70;79.60
39267;BME280;24967;51.154;13.812;2022-12-10T06:02:48;98554.06;;;2.69;80.43
39267;BME280;24967;51.154;13.812;2022-12-10T06:05:15;98567.69;;;2.63;79.89
39267;BME280;24967;51.154;13.812;2022-12-10T06:07:41;98552.53;;;2.67;79.92
39267;BME280;24967;51.154;13.812;2022-12-10T06:10:09;98561.31;;;2.77;79.79
39267;BME280;24967;51.154;13.812;2022-12-10T06:12:36;98568.84;;;2.70;79.38
39267;BME280;24967;51.154;13.812;2022-12-10T06:15:03;98565.22;;;2.83;79.76
39267;BME280;24967;51.154;13.812;2022-12-10T06:17:30;98565.41;;;2.70;80.07
39267;BME280;24967;51.154;13.812;2022-12-10T06:19:56;98566.16;;;2.61;79.56
39267;BME280;24967;51.154;13.812;2022-12-10T06:22:23;98566.88;;;2.51;80.72
39267;BME280;24967;51.154;13.812;2022-12-10T06:24:49;98572.56;;;2.57;80.54
39267;BME280;24967;51.154;13.812;2022-12-10T06:27:17;98572.25;;;2.50;80.35
39267;BME280;24967;51.154;13.812;2022-12-10T06:29:44;98569.59;;;2.61;81.03
39267;BME280;24967;51.154;13.812;2022-12-10T06:32:10;98581.16;;;2.59;80.75
39267;BME280;24967;51.154;13.812;2022-12-10T06:34:37;98585.69;;;2.57;80.50
39267;BME280;24967;51.154;13.812;2022-12-10T06:37:03;98582.72;;;2.50;80.90
39267;BME280;24967;51.154;13.812;2022-12-10T06:39:29;98587.50;;;2.56;80.94
39267;BME280;24967;51.154;13.812;2022-12-10T06:41:56;98591.69;;;2.47;81.31
39267;BME280;24967;51.154;13.812;2022-12-10T06:44:24;98593.81;;;2.53;81.31
39267;BME280;24967;51.154;13.812;2022-12-10T06:46:50;98588.31;;;2.57;80.51
39267;BME280;24967;51.154;13.812;2022-12-10T06:49:16;98596.34;;;2.44;81.33
39267;BME280;24967;51.154;13.812;2022-12-10T06:51:43;98600.03;;;2.41;81.28
39267;BME280;24967;51.154;13.812;2022-12-10T06:54:09;98598.03;;;2.34;81.77
39267;BME280;24967;51.154;13.812;2022-12-10T06:56:36;98593.53;;;2.24;82.15
39267;BME280;24967;51.154;13.812;2022-12-10T06:59:03;98591.50;;;2.17;82.36
39267;BME280;24967;51.154;13.812;2022-12-10T07:01:31;98595.28;;;2.35;82.17
39267;BME280;24967;51.154;13.812;2022-12-10T07:03:57;98594.69;;;2.20;82.46
39267;BME280;24967;51.154;13.812;2022-12-10T07:06:24;98606.59;;;2.36;81.97
39267;BME280;24967;51.154;13.812;2022-12-10T07:08:53;98604.78;;;2.47;82.10
39267;BME280;24967;51.154;13.812;2022-12-10T07:11:20;98603.63;;;2.51;81.76
39267;BME280;24967;51.154;13.812;2022-12-10T07:13:47;98608.97;;;2.39;81.06
39267;BME280;24967;51.154;13.812;2022-12-10T07:16:14;98608.28;;;2.25;82.13
39267;BME280;24967;51.154;13.812;2022-12-10T07:18:42;98611.59;;;2.39;81.56
39267;BME280;24967;51.154;13.812;2022-12-10T07:21:15;98609.56;;;2.53;81.04
39267;BME280;24967;51.154;13.812;2022-12-10T07:23:42;98612.31;;;2.41;81.45
39267;BME280;24967;51.154;13.812;2022-12-10T07:26:08;98608.25;;;2.48;81.18
39267;BME280;24967;51.154;13.812;2022-12-10T07:28:35;98616.72;;;2.51;81.21
39267;BME280;24967;51.154;13.812;2022-12-10T07:31:01;98610.88;;;2.48;81.45
39267;BME280;24967;51.154;13.812;2022-12-10T07:33:28;98619.47;;;2.39;81.61
39267;BME280;24967;51.154;13.812;2022-12-10T07:35:56;98620.38;;;2.60;81.27
39267;BME280;24967;51.154;13.812;2022-12-10T07:38:22;98618.00;;;2.68;81.02
39267;BME280;24967;51.154;13.812;2022-12-10T07:40:49;98612.88;;;2.67;80.21
39267;BME280;24967;51.154;13.812;2022-12-10T07:43:15;98621.34;;;2.59;80.54
39267;BME280;24967;51.154;13.812;2022-12-10T07:45:41;98621.38;;;2.48;80.61
39267;BME280;24967;51.154;13.812;2022-12-10T07:48:08;98616.09;;;2.70;80.31
39267;BME280;24967;51.154;13.812;2022-12-10T07:50:34;98618.56;;;2.83;80.32
39267;BME280;24967;51.154;13.812;2022-12-10T07:53:02;98627.47;;;2.92;79.82
39267;BME280;24967;51.154;13.812;2022-12-10T07:55:29;98623.44;;;2.88;79.38
39267;BME280;24967;51.154;13.812;2022-12-10T07:57:55;98621.19;;;2.83;80.05
39267;BME280;24967;51.154;13.812;2022-12-10T08:00:22;98621.44;;;2.80;79.36
39267;BME280;24967;51.154;13.812;2022-12-10T08:02:48;98626.69;;;2.69;79.38
39267;BME280;24967;51.154;13.812;2022-12-10T08:05:14;98630.88;;;2.71;79.68
39267;BME280;24967;51.154;13.812;2022-12-10T08:07:41;98621.31;;;2.82;80.15
39267;BME280;24967;51.154;13.812;2022-12-10T08:10:09;98629.47;;;2.67;79.66
39267;BME280;24967;51.154;13.812;2022-12-10T08:12:35;98626.25;;;2.52;80.55
39267;BME280;24967;51.154;13.812;2022-12-10T08:15:02;98624.22;;;2.67;80.61
39267;BME280;24967;51.154;13.812;2022-12-10T08:17:28;98631.75;;;2.61;80.25
39267;BME280;24967;51.154;13.812;2022-12-10T08:19:55;98633.16;;;2.53;80.37
39267;BME280;24967;51.154;13.812;2022-12-10T08:22:21;98635.19;;;2.61;80.38
39267;BME280;24967;51.154;13.812;2022-12-10T08:24:47;98638.06;;;2.69;80.40
39267;BME280;24967;51.154;13.812;2022-12-10T08:27:15;98639.22;;;2.77;80.21
39267;BME280;24967;51.154;13.812;2022-12-10T08:29:42;98638.38;;;2.76;80.49
39267;BME280;24967;51.154;13.812;2022-12-10T08:32:08;98636.69;;;2.86;79.86
39267;BME280;24967;51.154;13.812;2022-12-10T08:34:35;98636.44;;;2.89;79.47
39267;BME280;24967;51.154;13.812;2022-12-10T08:37:01;98645.25;;;3.00;79.75
39267;BME280;24967;51.154;13.812;2022-12-10T08:39:27;98645.47;;;2.96;79.30
39267;BME280;24967;51.154;13.812;2022-12-10T08:41:54;98644.97;;;2.70;79.33
39267;BME280;24967;51.154;13.812;2022-12-10T08:44:22;98645.22;;;2.45;80.95
39267;BME280;24967;51.154;13.812;2022-12-10T08:46:48;98650.00;;;2.40;80.43
39267;BME280;24967;51.154;13.812;2022-12-10T08:49:14;98649.19;;;2.28;80.69
39267;BME280;24967;51.154;13.812;2022-12-10T08:51:41;98652.63;;;2.40;80.77
39267;BME280;24967;51.154;13.812;2022-12-10T08:54:07;98650.72;;;2.42;81.04
39267;BME280;24967;51.154;13.812;2022-12-10T08:56:34;98651.91;;;2.38;80.73
39267;BME280;24967;51.154;13.812;2022-12-10T08:59:00;98649.63;;;2.56;80.67
39267;BME280;24967;51.154;13.812;2022-12-10T09:01:28;98664.78;;;2.63;80.44
39267;BME280;24967;51.154;13.812;2022-12-10T09:03:54;98658.91;;;2.60;80.31
39267;BME280;24967;51.154;13.812;2022-12-10T09:06:22;98665.38;;;2.67;79.92
39267;BME280;24967;51.154;13.812;2022-12-10T09:08:50;98664.53;;;2.66;79.95
39267;BME280;24967;51.154;13.812;2022-12-10T09:11:17;98670.13;;;2.73;80.13
39267;BME280;24967;51.154;13.812;2022-12-10T09:13:44;98674.41;;;2.85;80.24
39267;BME280;24967;51.154;13.812;2022-12-10T09:16:11;98660.88;;;2.90;79.96
39267;BME280;24967;51.154;13.812;2022-12-10T09:18:39;98663.50;;;2.90;79.65
39267;BME280;24967;51.154;13.812;2022-12-10T09:21:06;98660.53;;;2.94;79.00
39267;BME280;24967;51.154;13.812;2022-12-10T09:23:32;98660.88;;;3.01;79.25
39267;BME280;24967;51.154;13.812;2022-12-10T09:25:59;98666.91;;;3.13;78.73
39267;BME280;24967;51.154;13.812;2022-12-10T09:28:25;98664.28;;;3.13;78.75
39267;BME280;24967;51.154;13.812;2022-12-10T09:30:55;98661.00;;;3.00;78.32
39267;BME280;24967;51.154;13.812;2022-12-10T09:33:21;98655.97;;;2.96;78.54
39267;BME280;24967;51.154;13.812;2022-12-10T09:35:49;98670.47;;;2.80;79.19
39267;BME280;24967;51.154;13.812;2022-12-10T09:38:15;98658.06;;;2.82;78.97
39267;BME280;24967;51.154;13.812;2022-12-10T09:40:44;98660.94;;;2.67;79.33
39267;BME280;24967;51.154;13.812;2022-12-10T09:43:13;98665.28;;;2.35;80.28
39267;BME280;24967;51.154;13.812;2022-12-10T09:45:44;98671.13;;;2.16;82.26
39267;BME280;24967;51.154;13.812;2022-12-10T09:48:15;98661.81;;;2.00;82.78
39267;BME280;24967;51.154;13.812;2022-12-10T09:50:48;98666.44;;;2.08;83.12
39267;BME280;24967;51.154;13.812;2022-12-10T09:53:20;98663.72;;;2.21;83.11
39267;BME280;24967;51.154;13.812;2022-12-10T09:55:48;98661.22;;;2.31;82.35
39267;BME280;24967;51.154;13.812;2022-12-10T09:58:16;98650.00;;;2.17;82.58
39267;BME280;24967;51.154;13.812;2022-12-10T10:00:44;98660.84;;;2.46;82.37
39267;BME280;24967;51.154;13.812;2022-12-10T10:03:13;98661.09;;;2.43;82.02
39267;BME280;24967;51.154;13.812;2022-12-10T10:05:40;98657.16;;;2.49;82.18
39267;BME280;24967;51.154;13.812;2022-12-10T10:08:14;98649.97;;;2.51;81.97
39267;BME280;24967;51.154;13.812;2022-12-10T10:10:44;98662.38;;;2.60;81.55
39267;BME280;24967;51.154;13.812;2022-12-10T10:13:14;98653.81;;;2.58;80.64
39267;BME280;24967;51.154;13.812;2022-12-10T10:15:43;98657.50;;;2.67;80.87
39267;BME280;24967;51.154;13.812;2022-12-10T10:18:11;98650.47;;;2.56;80.23
39267;BME280;24967;51.154;13.812;2022-12-10T10:20:39;98648.47;;;2.37;81.34
39267;BME280;24967;51.154;13.812;2022-12-10T10:23:05;98654.63;;;2.59;80.87
39267;BME280;24967;51.154;13.812;2022-12-10T10:25:32;98653.72;;;2.48;80.79
39267;BME280;24967;51.154;13.812;2022-12-10T10:28:00;98650.84;;;2.51;80.63
39267;BME280;24967;51.154;13.812;2022-12-10T10:30:26;98651.09;;;2.37;80.64
39267;BME280;24967;51.154;13.812;2022-12-10T10:32:56;98654.91;;;2.33;81.17
39267;BME280;24967;51.154;13.812;2022-12-10T10:35:24;98645.59;;;2.29;81.63
39267;BME280;24967;51.154;13.812;2022-12-10T10:37:50;98645.94;;;2.47;81.82
39267;BME280;24967;51.154;13.812;2022-12-10T10:40:21;98644.63;;;2.52;80.90
39267;BME280;24967;51.154;13.812;2022-12-10T10:42:48;98646.03;;;2.57;80.67
39267;BME280;24967;51.154;13.812;2022-12-10T10:45:32;98647.72;;;2.58;80.87
39267;BME280;24967;51.154;13.812;2022-12-10T10:48:03;98650.00;;;2.17;82.29
39267;BME280;24967;51.154;13.812;2022-12-10T10:50:30;98646.31;;;2.09;81.99
39267;BME280;24967;51.154;13.812;2022-12-10T10:53:02;98640.81;;;2.12;83.37
39267;BME280;24967;51.154;13.812;2022-12-10T10:55:31;98632.59;;;2.05;83.45
39267;BME280;24967;51.154;13.812;2022-12-10T10:57:59;98635.94;;;2.07;83.28
39267;BME280;24967;51.154;13.812;2022-12-10T11:00:26;98629.50;;;2.22;83.08
39267;BME280;24967;51.154;13.812;2022-12-10T11:02:54;98636.19;;;2.38;82.21
39267;BME280;24967;51.154;13.812;2022-12-10T11:05:21;98640.59;;;2.48;81.85
39267;BME280;24967;51.154;13.812;2022-12-10T11:07:49;98643.47;;;2.34;81.43
39267;BME280;24967;51.154;13.812;2022-12-10T11:10:23;98641.91;;;2.43;81.44
39267;BME280;24967;51.154;13.812;2022-12-10T11:12:53;98645.47;;;2.42;80.95
39267;BME280;24967;51.154;13.812;2022-12-10T11:15:30;98640.09;;;2.21;82.15
39267;BME280;24967;51.154;13.812;2022-12-10T11:17:59;98640.00;;;2.34;82.30
39267;BME280;24967;51.154;13.812;2022-12-10T11:20:26;98642.38;;;2.14;82.41
39267;BME280;24967;51.154;13.812;2022-12-10T11:22:53;98645.94;;;2.36;82.54
39267;BME280;24967;51.154;13.812;2022-12-10T11:25:24;98642.97;;;2.40;82.03
39267;BME280;24967;51.154;13.812;2022-12-10T11:27:55;98639.63;;;2.61;81.60
39267;BME280;24967;51.154;13.812;2022-12-10T11:30:26;98643.06;;;2.61;81.44
39267;BME280;24967;51.154;13.812;2022-12-10T11:33:05;98644.81;;;2.72;81.38
39267;BME280;24967;51.154;13.812;2022-12-10T11:35:40;98644.38;;;2.67;81.10
39267;BME280;24967;51.154;13.812;2022-12-10T11:38:13;98644.44;;;2.88;81.17
39267;BME280;24967;51.154;13.812;2022-12-10T11:40:44;98644.81;;;2.83;80.18
39267;BME280;24967;51.154;13.812;2022-12-10T11:43:17;98640.53;;;2.71;80.42
39267;BME280;24967;51.154;13.812;2022-12-10T11:45:51;98630.13;;;2.81;80.17
39267;BME280;24967;51.154;13.812;2022-12-10T11:48:31;98641.81;;;2.88;79.93
39267;BME280;24967;51.154;13.812;2022-12-10T11:50:59;98649.69;;;2.88;79.71
39267;BME280;24967;51.154;13.812;2022-12-10T11:53:40;98644.97;;;2.59;79.90
39267;BME280;24967;51.154;13.812;2022-12-10T11:56:13;98646.06;;;2.45;80.78
39267;BME280;24967;51.154;13.812;2022-12-10T11:58:48;98641.56;;;2.25;81.27
39267;BME280;24967;51.154;13.812;2022-12-10T12:01:22;98644.38;;;2.44;80.96
39267;BME280;24967;51.154;13.812;2022-12-10T12:03:55;98647.19;;;2.75;80.82
39267;BME280;24967;51.154;13.812;2022-12-10T12:06:36;98647.91;;;2.77;80.38
39267;BME280;24967;51.154;13.812;2022-12-10T12:09:08;98650.38;;;2.90;79.96
39267;BME280;24967;51.154;13.812;2022-12-10T12:11:43;98646.91;;;3.01;79.85
39267;BME280;24967;51.154;13.812;2022-12-10T12:14:16;98647.63;;;3.03;79.59
39267;BME280;24967;51.154;13.812;2022-12-10T12:16:46;98648.78;;;3.10;78.90
39267;BME280;24967;51.154;13.812;2022-12-10T12:19:16;98647.41;;;2.94;79.30
39267;BME280;24967;51.154;13.812;2022-12-10T12:21:43;98648.41;;;2.82;79.14
39267;BME280;24967;51.154;13.812;2022-12-10T12:24:12;98649.53;;;3.01;79.00
39267;BME280;24967;51.154;13.812;2022-12-10T12:26:42;98650.69;;;2.64;78.65
39267;BME280;24967;51.154;13.812;2022-12-10T12:29:13;98650.22;;;2.70;79.28
39267;BME280;24967;51.154;13.812;2022-12-10T12:31:42;98648.41;;;2.71;78.72
39267;BME280;24967;51.154;13.812;2022-12-10T12:34:13;98650.84;;;2.51;79.69
39267;BME280;24967;51.154;13.812;2022-12-10T12:36:44;98652.16;;;2.35;80.23
39267;BME280;24967;51.154;13.812;2022-12-10T12:39:13;98654.63;;;2.59;80.49
39267;BME280;24967;51.154;13.812;2022-12-10T12:41:45;98648.81;;;2.55;79.96
39267;BME280;24967;51.154;13.812;2022-12-10T12:44:17;98644.19;;;2.36;80.25
39267;BME280;24967;51.154;13.812;2022-12-10T12:46:45;98643.56;;;2.55;80.02
39267;BME280;24967;51.154;13.812;2022-12-10T12:49:14;98639.50;;;2.51;80.50
39267;BME280;24967;51.154;13.812;2022-12-10T12:51:45;98637.72;;;2.40;80.80
39267;BME280;24967;51.154;13.812;2022-12-10T12:54:14;98640.69;;;2.36;81.32
39267;BME280;24967;51.154;13.812;2022-12-10T12:56:50;98646.06;;;2.12;81.85
39267;BME280;24967;51.154;13.812;2022-12-10T12:59:22;98640.44;;;2.50;81.08
39267;BME280;24967;51.154;13.812;2022-12-10T13:01:53;98638.06;;;2.36;81.82
39267;BME280;24967;51.154;13.812;2022-12-10T13:04:20;98644.25;;;2.57;80.70
39267;BME280;24967;51.154;13.812;2022-12-10T13:09:29;98653.81;;;2.58;80.20